sensor_id;sensor_type;location;lat;lon;timestamp;pressure;altitude;pressure_sealevel;temperature;humidity
78613;BME280;67933;51.060;3.638;2023-02-28T00:01:13;103228.75;;;0.06;72.17
78613;BME280;67933;51.060;3.638;2023-02-28T00:03:39;103228.69;;;0.04;71.78
78613;BME280;67933;51.060;3.638;2023-02-28T00:06:06;103233.78;;;-0.02;72.59
78613;BME280;67933;51.060;3.638;2023-02-28T00:08:31;103232.00;;;-0.03;72.70
78613;BME280;67933;51.060;3.638;2023-02-28T00:11:01;103233.63;;;-0.08;73.12
78613;BME280;67933;51.060;3.638;2023-02-28T00:13:27;103227.34;;;-0.16;73.39
78613;BME280;67933;51.060;3.638;2023-02-28T00:16:00;103234.50;;;-0.08;73.41
78613;BME280;67933;51.060;3.638;2023-02-28T00:18:26;103223.38;;;-0.01;73.51
78613;BME280;67933;51.060;3.638;2023-02-28T00:20:52;103218.19;;;0.01;73.60
78613;BME280;67933;51.060;3.638;2023-02-28T00:23:17;103228.56;;;-0.02;73.29
78613;BME280;67933;51.060;3.638;2023-02-28T00:25:42;103225.13;;;-0.01;73.58
78613;BME280;67933;51.060;3.638;2023-02-28T00:28:08;103224.06;;;-0.08;73.93
78613;BME280;67933;51.060;3.638;2023-02-28T00:30:33;103224.94;;;-0.07;73.50
78613;BME280;67933;51.060;3.638;2023-02-28T00:32:59;103233.69;;;-0.05;73.68
78613;BME280;67933;51.060;3.638;2023-02-28T00:35:24;103233.63;;;-0.08;73.82
78613;BME280;67933;51.060;3.638;2023-02-28T00:37:49;103225.56;;;-0.17;74.31
78613;BME280;67933;51.060;3.638;2023-02-28T00:40:15;103228.88;;;-0.24;74.29
78613;BME280;67933;51.060;3.638;2023-02-28T00:42:40;103231.09;;;-0.40;75.08
78613;BME280;67933;51.060;3.638;2023-02-28T00:45:07;103236.22;;;-0.43;75.53
78613;BME280;67933;51.060;3.638;2023-02-28T00:47:33;103237.75;;;-0.51;75.82
78613;BME280;67933;51.060;3.638;2023-02-28T00:49:59;103228.94;;;-0.56;75.36
78613;BME280;67933;51.060;3.638;2023-02-28T00:52:25;103238.97;;;-0.69;75.71
78613;BME280;67933;51.060;3.638;2023-02-28T00:54:50;103246.25;;;-0.89;76.63
78613;BME280;67933;51.060;3.638;2023-02-28T00:57:15;103237.03;;;-0.78;77.15
78613;BME280;67933;51.060;3.638;2023-02-28T00:59:41;103247.66;;;-0.69;76.94
78613;BME280;67933;51.060;3.638;2023-02-28T01:02:06;103230.88;;;-0.80;76.78
78613;BME280;67933;51.060;3.638;2023-02-28T01:04:32;103235.53;;;-1.00;77.04
78613;BME280;67933;51.060;3.638;2023-02-28T01:06:57;103246.34;;;-1.16;77.33
78613;BME280;67933;51.060;3.638;2023-02-28T01:09:23;103246.88;;;-1.28;78.17
78613;BME280;67933;51.060;3.638;2023-02-28T01:11:48;103249.75;;;-1.47;77.86
78613;BME280;67933;51.060;3.638;2023-02-28T01:14:15;103247.97;;;-1.49;78.86
78613;BME280;67933;51.060;3.638;2023-02-28T01:16:41;103252.25;;;-1.22;79.72
78613;BME280;67933;51.060;3.638;2023-02-28T01:19:07;103262.44;;;-0.99;78.88
78613;BME280;67933;51.060;3.638;2023-02-28T01:21:33;103238.09;;;-1.01;78.05
78613;BME280;67933;51.060;3.638;2023-02-28T01:24:00;103265.53;;;-0.83;77.94
78613;BME280;67933;51.060;3.638;2023-02-28T01:26:25;103257.59;;;-0.87;77.79
78613;BME280;67933;51.060;3.638;2023-02-28T01:28:52;103260.78;;;-0.97;78.30
78613;BME280;67933;51.060;3.638;2023-02-28T01:31:19;103256.47;;;-0.97;78.80
78613;BME280;67933;51.060;3.638;2023-02-28T01:33:45;103251.34;;;-0.94;78.02
78613;BME280;67933;51.060;3.638;2023-02-28T01:36:19;103246.31;;;-0.88;78.35
78613;BME280;67933;51.060;3.638;2023-02-28T01:38:46;103248.84;;;-0.89;78.47
78613;BME280;67933;51.060;3.638;2023-02-28T01:41:32;103247.75;;;-0.97;78.32
78613;BME280;67933;51.060;3.638;2023-02-28T01:46:32;103237.13;;;-1.35;79.29
78613;BME280;67933;51.060;3.638;2023-02-28T01:49:11;103244.41;;;-1.51;79.17
78613;BME280;67933;51.060;3.638;2023-02-28T01:51:44;103238.38;;;-1.79;80.43
78613;BME280;67933;51.060;3.638;2023-02-28T01:54:18;103234.19;;;-2.01;80.78
78613;BME280;67933;51.060;3.638;2023-02-28T01:56:51;103250.34;;;-2.11;81.46
78613;BME280;67933;51.060;3.638;2023-02-28T01:59:27;103244.84;;;-2.20;81.77
78613;BME280;67933;51.060;3.638;2023-02-28T02:01:54;103245.53;;;-2.25;82.34
78613;BME280;67933;51.060;3.638;2023-02-28T02:04:22;103238.19;;;-2.37;82.78
78613;BME280;67933;51.060;3.638;2023-02-28T02:06:48;103231.84;;;-2.45;83.16
78613;BME280;67933;51.060;3.638;2023-02-28T02:09:14;103235.13;;;-2.51;83.66
78613;BME280;67933;51.060;3.638;2023-02-28T02:11:41;103229.75;;;-2.55;83.91
78613;BME280;67933;51.060;3.638;2023-02-28T02:14:30;103230.59;;;-2.56;84.28
78613;BME280;67933;51.060;3.638;2023-02-28T02:17:16;103233.97;;;-2.59;84.57
78613;BME280;67933;51.060;3.638;2023-02-28T02:36:42;103225.59;;;-2.76;84.95
78613;BME280;67933;51.060;3.638;2023-02-28T02:39:19;103224.56;;;-2.81;84.91
78613;BME280;67933;51.060;3.638;2023-02-28T02:41:53;103216.91;;;-2.76;84.95
78613;BME280;67933;51.060;3.638;2023-02-28T02:46:50;103223.66;;;-2.81;85.90
78613;BME280;67933;51.060;3.638;2023-02-28T02:49:24;103222.59;;;-2.86;85.12
78613;BME280;67933;51.060;3.638;2023-02-28T02:51:52;103219.84;;;-2.91;85.16
78613;BME280;67933;51.060;3.638;2023-02-28T02:54:27;103220.47;;;-2.98;85.76
78613;BME280;67933;51.060;3.638;2023-02-28T02:56:57;103224.72;;;-3.00;86.23
78613;BME280;67933;51.060;3.638;2023-02-28T02:59:24;103221.16;;;-3.02;86.01
78613;BME280;67933;51.060;3.638;2023-02-28T03:01:57;103216.84;;;-3.03;85.32
78613;BME280;67933;51.060;3.638;2023-02-28T03:04:25;103223.66;;;-3.05;86.61
78613;BME280;67933;51.060;3.638;2023-02-28T03:06:52;103231.06;;;-2.92;86.79
78613;BME280;67933;51.060;3.638;2023-02-28T03:09:24;103217.09;;;-2.95;86.23
78613;BME280;67933;51.060;3.638;2023-02-28T03:11:52;103225.66;;;-2.98;86.50
78613;BME280;67933;51.060;3.638;2023-02-28T03:14:33;103229.00;;;-3.00;86.51
78613;BME280;67933;51.060;3.638;2023-02-28T03:22:20;103224.56;;;-2.81;87.58
78613;BME280;67933;51.060;3.638;2023-02-28T03:25:29;103217.38;;;-2.88;86.42
78613;BME280;67933;51.060;3.638;2023-02-28T03:28:50;103214.66;;;-2.91;86.50
78613;BME280;67933;51.060;3.638;2023-02-28T03:33:39;103223.28;;;-2.92;87.37
78613;BME280;67933;51.060;3.638;2023-02-28T03:36:12;103220.88;;;-2.86;87.55
78613;BME280;67933;51.060;3.638;2023-02-28T03:41:19;103217.72;;;-2.77;87.81
78613;BME280;67933;51.060;3.638;2023-02-28T03:44:00;103222.44;;;-2.67;87.94
78613;BME280;67933;51.060;3.638;2023-02-28T03:46:32;103214.28;;;-2.52;88.07
78613;BME280;67933;51.060;3.638;2023-02-28T03:49:07;103222.44;;;-2.42;88.17
78613;BME280;67933;51.060;3.638;2023-02-28T03:51:35;103218.63;;;-2.26;87.80
78613;BME280;67933;51.060;3.638;2023-02-28T03:54:11;103208.94;;;-2.05;86.94
78613;BME280;67933;51.060;3.638;2023-02-28T03:56:38;103220.94;;;-1.53;86.19
78613;BME280;67933;51.060;3.638;2023-02-28T03:59:16;103216.25;;;-1.36;85.33
78613;BME280;67933;51.060;3.638;2023-02-28T04:01:46;103222.03;;;-1.17;86.07
78613;BME280;67933;51.060;3.638;2023-02-28T04:04:13;103222.81;;;-0.89;84.41
78613;BME280;67933;51.060;3.638;2023-02-28T04:06:40;103223.06;;;-0.80;84.01
78613;BME280;67933;51.060;3.638;2023-02-28T04:09:08;103219.09;;;-0.66;83.48
78613;BME280;67933;51.060;3.638;2023-02-28T04:14:01;103220.03;;;-0.64;82.97
78613;BME280;67933;51.060;3.638;2023-02-28T04:16:27;103215.06;;;-0.55;82.65
78613;BME280;67933;51.060;3.638;2023-02-28T04:18:53;103215.38;;;-0.43;82.19
78613;BME280;67933;51.060;3.638;2023-02-28T04:21:18;103220.09;;;-0.28;82.07
78613;BME280;67933;51.060;3.638;2023-02-28T04:23:47;103206.44;;;-0.18;81.57
78613;BME280;67933;51.060;3.638;2023-02-28T04:26:12;103210.41;;;0.03;81.21
78613;BME280;67933;51.060;3.638;2023-02-28T04:28:38;103217.69;;;0.17;80.33
78613;BME280;67933;51.060;3.638;2023-02-28T04:31:04;103214.38;;;0.24;79.68
78613;BME280;67933;51.060;3.638;2023-02-28T04:33:31;103222.41;;;0.33;79.61
78613;BME280;67933;51.060;3.638;2023-02-28T04:36:02;103223.44;;;0.38;79.38
78613;BME280;67933;51.060;3.638;2023-02-28T04:38:30;103224.44;;;0.47;78.93
78613;BME280;67933;51.060;3.638;2023-02-28T04:40:58;103230.63;;;0.50;79.07
78613;BME280;67933;51.060;3.638;2023-02-28T04:43:23;103228.09;;;0.53;78.92
78613;BME280;67933;51.060;3.638;2023-02-28T04:45:49;103226.38;;;0.55;79.02
78613;BME280;67933;51.060;3.638;2023-02-28T04:48:14;103234.22;;;0.54;79.27
78613;BME280;67933;51.060;3.638;2023-02-28T04:50:40;103224.88;;;0.65;78.59
78613;BME280;67933;51.060;3.638;2023-02-28T04:53:05;103231.84;;;0.66;78.63
78613;BME280;67933;51.060;3.638;2023-02-28T04:55:32;103238.88;;;0.70;78.53
78613;BME280;67933;51.060;3.638;2023-02-28T04:57:57;103231.09;;;0.71;78.65
78613;BME280;67933;51.060;3.638;2023-02-28T05:00:23;103224.09;;;0.70;78.45
78613;BME280;67933;51.060;3.638;2023-02-28T05:02:48;103230.41;;;0.80;78.85
78613;BME280;67933;51.060;3.638;2023-02-28T05:05:13;103227.03;;;0.86;78.11
78613;BME280;67933;51.060;3.638;2023-02-28T05:07:44;103241.03;;;0.88;78.40
78613;BME280;67933;51.060;3.638;2023-02-28T05:10:10;103231.41;;;0.87;78.31
78613;BME280;67933;51.060;3.638;2023-02-28T05:12:36;103235.72;;;0.83;78.44
78613;BME280;67933;51.060;3.638;2023-02-28T05:15:01;103236.50;;;0.81;78.58
78613;BME280;67933;51.060;3.638;2023-02-28T05:17:27;103240.22;;;0.90;78.50
78613;BME280;67933;51.060;3.638;2023-02-28T05:19:53;103233.88;;;0.79;79.79
78613;BME280;67933;51.060;3.638;2023-02-28T05:22:18;103231.06;;;0.68;80.09
78613;BME280;67933;51.060;3.638;2023-02-28T05:24:44;103237.19;;;0.72;80.06
78613;BME280;67933;51.060;3.638;2023-02-28T05:27:10;103241.53;;;0.71;80.04
78613;BME280;67933;51.060;3.638;2023-02-28T05:29:35;103245.16;;;0.78;79.82
78613;BME280;67933;51.060;3.638;2023-02-28T05:32:10;103235.59;;;0.78;79.90
78613;BME280;67933;51.060;3.638;2023-02-28T05:34:39;103242.66;;;0.83;79.79
78613;BME280;67933;51.060;3.638;2023-02-28T05:37:07;103239.25;;;0.85;79.89
78613;BME280;67933;51.060;3.638;2023-02-28T05:39:35;103232.50;;;0.96;79.17
78613;BME280;67933;51.060;3.638;2023-02-28T05:42:01;103240.25;;;0.93;79.65
78613;BME280;67933;51.060;3.638;2023-02-28T05:44:26;103237.78;;;1.01;79.15
78613;BME280;67933;51.060;3.638;2023-02-28T05:46:52;103229.19;;;1.05;78.63
78613;BME280;67933;51.060;3.638;2023-02-28T05:49:17;103236.22;;;1.07;78.46
78613;BME280;67933;51.060;3.638;2023-02-28T05:51:43;103236.25;;;1.10;78.37
78613;BME280;67933;51.060;3.638;2023-02-28T05:54:08;103243.22;;;1.10;78.51
78613;BME280;67933;51.060;3.638;2023-02-28T05:56:35;103248.38;;;1.05;78.85
78613;BME280;67933;51.060;3.638;2023-02-28T05:59:01;103250.16;;;1.09;78.60
78613;BME280;67933;51.060;3.638;2023-02-28T06:01:38;103245.81;;;1.10;78.69
78613;BME280;67933;51.060;3.638;2023-02-28T06:04:06;103252.06;;;1.16;78.29
78613;BME280;67933;51.060;3.638;2023-02-28T06:06:32;103248.75;;;1.24;78.19
78613;BME280;67933;51.060;3.638;2023-02-28T06:08:59;103255.66;;;1.22;78.25
78613;BME280;67933;51.060;3.638;2023-02-28T06:11:26;103252.19;;;1.23;78.16
78613;BME280;67933;51.060;3.638;2023-02-28T06:13:59;103261.81;;;1.25;77.93
78613;BME280;67933;51.060;3.638;2023-02-28T06:16:26;103264.47;;;1.27;78.16
78613;BME280;67933;51.060;3.638;2023-02-28T06:18:52;103259.13;;;1.21;78.40
78613;BME280;67933;51.060;3.638;2023-02-28T06:21:21;103266.25;;;1.29;78.32
78613;BME280;67933;51.060;3.638;2023-02-28T06:23:47;103266.25;;;1.29;78.53
78613;BME280;67933;51.060;3.638;2023-02-28T06:26:13;103271.56;;;1.34;77.95
78613;BME280;67933;51.060;3.638;2023-02-28T06:28:38;103276.75;;;1.31;77.92
78613;BME280;67933;51.060;3.638;2023-02-28T06:31:11;103272.56;;;1.39;77.65
78613;BME280;67933;51.060;3.638;2023-02-28T06:33:38;103281.16;;;1.33;77.92
78613;BME280;67933;51.060;3.638;2023-02-28T06:36:04;103270.75;;;1.36;78.16
78613;BME280;67933;51.060;3.638;2023-02-28T06:38:30;103275.22;;;1.42;77.88
78613;BME280;67933;51.060;3.638;2023-02-28T06:40:58;103267.41;;;1.43;77.77
78613;BME280;67933;51.060;3.638;2023-02-28T06:43:24;103276.13;;;1.44;78.03
78613;BME280;67933;51.060;3.638;2023-02-28T06:45:53;103272.66;;;1.45;77.95
78613;BME280;67933;51.060;3.638;2023-02-28T06:48:19;103271.75;;;1.43;78.19
78613;BME280;67933;51.060;3.638;2023-02-28T06:50:44;103285.69;;;1.42;79.08
78613;BME280;67933;51.060;3.638;2023-02-28T06:53:09;103289.13;;;1.41;78.39
78613;BME280;67933;51.060;3.638;2023-02-28T06:55:37;103277.97;;;1.49;78.61
78613;BME280;67933;51.060;3.638;2023-02-28T06:58:02;103277.97;;;1.49;78.77
78613;BME280;67933;51.060;3.638;2023-02-28T07:00:28;103277.16;;;1.52;78.51
78613;BME280;67933;51.060;3.638;2023-02-28T07:02:53;103274.44;;;1.46;78.38
78613;BME280;67933;51.060;3.638;2023-02-28T07:05:20;103269.28;;;1.50;78.24
78613;BME280;67933;51.060;3.638;2023-02-28T07:07:45;103273.72;;;1.56;78.47
78613;BME280;67933;51.060;3.638;2023-02-28T07:10:12;103272.22;;;1.67;78.17
78613;BME280;67933;51.060;3.638;2023-02-28T07:12:39;103269.66;;;1.72;77.71
78613;BME280;67933;51.060;3.638;2023-02-28T07:15:05;103281.91;;;1.73;77.22
78613;BME280;67933;51.060;3.638;2023-02-28T07:17:31;103273.25;;;1.77;77.31
78613;BME280;67933;51.060;3.638;2023-02-28T07:19:56;103273.28;;;1.80;77.26
78613;BME280;67933;51.060;3.638;2023-02-28T07:22:22;103281.22;;;1.83;76.23
78613;BME280;67933;51.060;3.638;2023-02-28T07:24:47;103277.91;;;1.94;76.62
78613;BME280;67933;51.060;3.638;2023-02-28T07:27:13;103272.72;;;1.96;76.02
78613;BME280;67933;51.060;3.638;2023-02-28T07:29:48;103278.06;;;2.04;75.25
78613;BME280;67933;51.060;3.638;2023-02-28T07:32:14;103265.97;;;2.09;75.57
78613;BME280;67933;51.060;3.638;2023-02-28T07:34:41;103262.53;;;2.13;75.46
78613;BME280;67933;51.060;3.638;2023-02-28T07:37:06;103269.66;;;2.23;74.31
78613;BME280;67933;51.060;3.638;2023-02-28T07:39:31;103257.47;;;2.25;69.57
78613;BME280;67933;51.060;3.638;2023-02-28T07:41:57;103267.97;;;2.26;69.65
78613;BME280;67933;51.060;3.638;2023-02-28T07:44:22;103269.66;;;2.23;67.09
78613;BME280;67933;51.060;3.638;2023-02-28T07:46:47;103268.94;;;2.33;69.02
78613;BME280;67933;51.060;3.638;2023-02-28T07:49:13;103261.13;;;2.36;69.71
78613;BME280;67933;51.060;3.638;2023-02-28T07:51:38;103268.31;;;2.49;68.43
78613;BME280;67933;51.060;3.638;2023-02-28T07:54:04;103270.16;;;2.56;68.56
78613;BME280;67933;51.060;3.638;2023-02-28T07:56:30;103265.09;;;2.68;68.82
78613;BME280;67933;51.060;3.638;2023-02-28T07:58:55;103266.91;;;2.74;67.06
78613;BME280;67933;51.060;3.638;2023-02-28T08:01:21;103259.13;;;2.79;67.60
78613;BME280;67933;51.060;3.638;2023-02-28T08:03:46;103263.53;;;2.81;67.39
78613;BME280;67933;51.060;3.638;2023-02-28T08:06:18;103262.56;;;2.75;66.95
78613;BME280;67933;51.060;3.638;2023-02-28T08:08:44;103269.69;;;2.85;67.40
78613;BME280;67933;51.060;3.638;2023-02-28T08:11:09;103270.56;;;2.84;66.80
78613;BME280;67933;51.060;3.638;2023-02-28T08:13:35;103264.31;;;2.76;67.83
78613;BME280;67933;51.060;3.638;2023-02-28T08:16:01;103278.34;;;2.81;67.06
78613;BME280;67933;51.060;3.638;2023-02-28T08:18:27;103272.31;;;2.85;67.50
78613;BME280;67933;51.060;3.638;2023-02-28T08:20:53;103267.84;;;2.79;67.09
78613;BME280;67933;51.060;3.638;2023-02-28T08:23:18;103278.44;;;2.87;68.10
78613;BME280;67933;51.060;3.638;2023-02-28T08:25:44;103265.38;;;2.90;66.14
78613;BME280;67933;51.060;3.638;2023-02-28T08:28:09;103257.63;;;2.99;64.70
78613;BME280;67933;51.060;3.638;2023-02-28T08:30:34;103256.59;;;2.88;65.45
78613;BME280;67933;51.060;3.638;2023-02-28T08:33:00;103261.97;;;2.94;64.32
78613;BME280;67933;51.060;3.638;2023-02-28T08:35:26;103260.22;;;2.96;64.77
78613;BME280;67933;51.060;3.638;2023-02-28T08:37:52;103257.50;;;2.88;63.19
78613;BME280;67933;51.060;3.638;2023-02-28T08:40:17;103265.38;;;2.90;63.98
78613;BME280;67933;51.060;3.638;2023-02-28T08:42:45;103260.19;;;2.94;64.72
78613;BME280;67933;51.060;3.638;2023-02-28T08:45:12;103261.75;;;2.80;63.52
78613;BME280;67933;51.060;3.638;2023-02-28T08:47:37;103276.38;;;2.63;62.54
78613;BME280;67933;51.060;3.638;2023-02-28T08:50:03;103272.59;;;2.43;62.38
78613;BME280;67933;51.060;3.638;2023-02-28T08:52:29;103275.16;;;2.38;61.50
78613;BME280;67933;51.060;3.638;2023-02-28T08:54:55;103266.34;;;2.35;62.57
78613;BME280;67933;51.060;3.638;2023-02-28T08:57:20;103277.03;;;2.48;63.22
78613;BME280;67933;51.060;3.638;2023-02-28T08:59:46;103279.84;;;2.60;63.09
78613;BME280;67933;51.060;3.638;2023-02-28T09:02:14;103279.00;;;2.64;62.34
78613;BME280;67933;51.060;3.638;2023-02-28T09:04:40;103276.44;;;2.67;63.26
78613;BME280;67933;51.060;3.638;2023-02-28T09:07:06;103287.00;;;2.74;62.31
78613;BME280;67933;51.060;3.638;2023-02-28T09:09:32;103283.53;;;2.75;62.26
78613;BME280;67933;51.060;3.638;2023-02-28T09:11:57;103290.59;;;2.79;62.48
78613;BME280;67933;51.060;3.638;2023-02-28T09:14:23;103286.41;;;2.93;62.32
78613;BME280;67933;51.060;3.638;2023-02-28T09:16:48;103283.72;;;2.90;63.02
78613;BME280;67933;51.060;3.638;2023-02-28T09:19:14;103279.41;;;2.92;63.06
78613;BME280;67933;51.060;3.638;2023-02-28T09:21:40;103282.16;;;3.01;62.56
78613;BME280;67933;51.060;3.638;2023-02-28T09:24:06;103274.38;;;3.12;63.89
78613;BME280;67933;51.060;3.638;2023-02-28T09:26:31;103278.81;;;3.16;61.96
78613;BME280;67933;51.060;3.638;2023-02-28T09:28:57;103274.38;;;3.12;62.89
78613;BME280;67933;51.060;3.638;2023-02-28T09:31:27;103282.31;;;3.15;61.38
78613;BME280;67933;51.060;3.638;2023-02-28T09:33:56;103281.38;;;3.09;63.55
78613;BME280;67933;51.060;3.638;2023-02-28T09:36:24;103274.44;;;3.15;61.80
78613;BME280;67933;51.060;3.638;2023-02-28T09:38:49;103274.38;;;3.12;60.29
78613;BME280;67933;51.060;3.638;2023-02-28T09:41:22;103280.41;;;3.04;62.15
78613;BME280;67933;51.060;3.638;2023-02-28T09:43:53;103273.41;;;3.03;61.21
78613;BME280;67933;51.060;3.638;2023-02-28T09:46:36;103277.97;;;3.18;61.68
78613;BME280;67933;51.060;3.638;2023-02-28T09:49:07;103284.94;;;3.16;58.92
78613;BME280;67933;51.060;3.638;2023-02-28T09:54:15;103278.81;;;3.14;60.66
78613;BME280;67933;51.060;3.638;2023-02-28T09:56:45;103255.31;;;3.23;59.98
78613;BME280;67933;51.060;3.638;2023-02-28T10:02:19;103267.78;;;3.45;55.31
78613;BME280;67933;51.060;3.638;2023-02-28T10:10:23;103277.44;;;3.46;54.09
78613;BME280;67933;51.060;3.638;2023-02-28T10:12:52;103259.97;;;3.50;55.89
78613;BME280;67933;51.060;3.638;2023-02-28T10:15:21;103273.84;;;3.41;55.60
78613;BME280;67933;51.060;3.638;2023-02-28T10:17:53;103265.13;;;3.39;53.35
78613;BME280;67933;51.060;3.638;2023-02-28T10:20:21;103259.97;;;3.50;54.17
78613;BME280;67933;51.060;3.638;2023-02-28T10:23:02;103267.91;;;3.58;54.75
78613;BME280;67933;51.060;3.638;2023-02-28T10:25:34;103277.69;;;3.71;56.09
78613;BME280;67933;51.060;3.638;2023-02-28T10:28:08;103259.38;;;3.77;53.76
78613;BME280;67933;51.060;3.638;2023-02-28T10:30:36;103250.72;;;3.87;53.15
78613;BME280;67933;51.060;3.638;2023-02-28T10:33:03;103253.69;;;4.31;50.85
78613;BME280;67933;51.060;3.638;2023-02-28T10:35:28;103238.88;;;4.41;51.02
78613;BME280;67933;51.060;3.638;2023-02-28T10:37:58;103238.22;;;4.84;48.31
78613;BME280;67933;51.060;3.638;2023-02-28T10:40:26;103241.13;;;6.09;46.79
78613;BME280;67933;51.060;3.638;2023-02-28T10:45:23;103238.38;;;5.30;46.10
78613;BME280;67933;51.060;3.638;2023-02-28T10:47:54;103241.81;;;5.12;45.40
78613;BME280;67933;51.060;3.638;2023-02-28T10:55:35;103222.41;;;4.77;48.06
78613;BME280;67933;51.060;3.638;2023-02-28T10:58:01;103216.47;;;5.34;48.89
78613;BME280;67933;51.060;3.638;2023-02-28T11:00:32;103219.97;;;5.36;46.26
78613;BME280;67933;51.060;3.638;2023-02-28T11:02:58;103205.91;;;5.35;45.37
78613;BME280;67933;51.060;3.638;2023-02-28T11:07:55;103210.34;;;5.82;41.53
78613;BME280;67933;51.060;3.638;2023-02-28T11:10:25;103206.88;;;5.97;43.10
78613;BME280;67933;51.060;3.638;2023-02-28T11:12:55;103196.13;;;6.77;43.26
78613;BME280;67933;51.060;3.638;2023-02-28T11:15:30;103184.16;;;8.58;38.17
78613;BME280;67933;51.060;3.638;2023-02-28T11:20:48;103188.13;;;10.95;34.14
78613;BME280;67933;51.060;3.638;2023-02-28T11:23:15;103182.59;;;9.68;33.90
78613;BME280;67933;51.060;3.638;2023-02-28T11:25:50;103180.63;;;9.80;34.63
78613;BME280;67933;51.060;3.638;2023-02-28T11:28:40;103175.06;;;11.99;32.23
78613;BME280;67933;51.060;3.638;2023-02-28T11:33:44;103162.22;;;11.06;31.27
78613;BME280;67933;51.060;3.638;2023-02-28T11:38:43;103151.78;;;12.07;32.03
78613;BME280;67933;51.060;3.638;2023-02-28T11:43:56;103153.88;;;12.57;27.53
78613;BME280;67933;51.060;3.638;2023-02-28T11:56:55;103144.81;;;13.23;28.07
78613;BME280;67933;51.060;3.638;2023-02-28T12:02:15;103132.16;;;11.41;30.86
78613;BME280;67933;51.060;3.638;2023-02-28T12:08:15;103129.34;;;13.05;27.48
78613;BME280;67933;51.060;3.638;2023-02-28T12:16:27;103120.09;;;13.71;27.22
78613;BME280;67933;51.060;3.638;2023-02-28T12:21:56;103108.72;;;13.39;28.21
78613;BME280;67933;51.060;3.638;2023-02-28T12:27:13;103100.63;;;13.94;25.56
78613;BME280;67933;51.060;3.638;2023-02-28T12:29:47;103101.88;;;13.83;25.17
78613;BME280;67933;51.060;3.638;2023-02-28T12:32:23;103089.44;;;13.31;25.49
78613;BME280;67933;51.060;3.638;2023-02-28T12:34:56;103088.41;;;13.62;26.22
78613;BME280;67933;51.060;3.638;2023-02-28T12:37:29;103092.75;;;13.39;25.04
78613;BME280;67933;51.060;3.638;2023-02-28T12:40:02;103084.47;;;12.93;24.69
78613;BME280;67933;51.060;3.638;2023-02-28T12:42:31;103092.66;;;12.57;26.30
78613;BME280;67933;51.060;3.638;2023-02-28T12:45:02;103078.78;;;12.76;25.94
78613;BME280;67933;51.060;3.638;2023-02-28T12:47:30;103082.28;;;13.32;24.74
78613;BME280;67933;51.060;3.638;2023-02-28T12:50:05;103078.19;;;12.94;22.52
78613;BME280;67933;51.060;3.638;2023-02-28T12:55:15;103076.47;;;12.93;23.88
78613;BME280;67933;51.060;3.638;2023-02-28T13:00:35;103063.03;;;12.96;24.27
78613;BME280;67933;51.060;3.638;2023-02-28T13:03:24;103051.81;;;13.13;24.60
78613;BME280;67933;51.060;3.638;2023-02-28T13:09:02;103053.84;;;14.08;22.18
78613;BME280;67933;51.060;3.638;2023-02-28T13:11:45;103053.84;;;14.08;23.86
78613;BME280;67933;51.060;3.638;2023-02-28T13:14:36;103052.63;;;14.40;22.42
78613;BME280;67933;51.060;3.638;2023-02-28T13:17:03;103040.47;;;14.08;22.41
78613;BME280;67933;51.060;3.638;2023-02-28T13:20:13;103053.44;;;13.44;24.12
78613;BME280;67933;51.060;3.638;2023-02-28T13:22:42;103045.44;;;14.17;24.06
78613;BME280;67933;51.060;3.638;2023-02-28T13:27:46;103046.06;;;13.53;23.34
78613;BME280;67933;51.060;3.638;2023-02-28T13:38:45;103051.38;;;12.13;24.56
78613;BME280;67933;51.060;3.638;2023-02-28T13:44:05;103038.41;;;11.69;24.85
78613;BME280;67933;51.060;3.638;2023-02-28T13:46:34;103043.66;;;12.04;25.70
78613;BME280;67933;51.060;3.638;2023-02-28T13:51:52;103038.72;;;12.79;23.15
78613;BME280;67933;51.060;3.638;2023-02-28T14:05:17;103044.44;;;12.08;24.83
78613;BME280;67933;51.060;3.638;2023-02-28T14:07:47;103043.09;;;11.59;23.74
78613;BME280;67933;51.060;3.638;2023-02-28T14:10:28;103043.56;;;11.41;22.87
78613;BME280;67933;51.060;3.638;2023-02-28T14:15:56;103041.75;;;11.43;25.31
78613;BME280;67933;51.060;3.638;2023-02-28T14:18:34;103048.53;;;11.21;23.23
78613;BME280;67933;51.060;3.638;2023-02-28T14:21:26;103042.19;;;11.92;24.80
78613;BME280;67933;51.060;3.638;2023-02-28T14:35:18;103043.91;;;10.92;25.56
78613;BME280;67933;51.060;3.638;2023-02-28T14:37:45;103044.78;;;10.92;24.78
78613;BME280;67933;51.060;3.638;2023-02-28T14:40:17;103048.06;;;10.26;24.66
78613;BME280;67933;51.060;3.638;2023-02-28T14:43:05;103038.75;;;10.47;25.07
78613;BME280;67933;51.060;3.638;2023-02-28T14:45:32;103049.63;;;10.36;24.89
78613;BME280;67933;51.060;3.638;2023-02-28T14:48:01;103028.22;;;10.01;25.53
78613;BME280;67933;51.060;3.638;2023-02-28T14:50:34;103045.78;;;10.50;26.13
78613;BME280;67933;51.060;3.638;2023-02-28T14:52:59;103030.13;;;9.93;25.83
78613;BME280;67933;51.060;3.638;2023-02-28T14:55:35;103046.63;;;9.62;26.30
78613;BME280;67933;51.060;3.638;2023-02-28T14:58:05;103047.03;;;9.41;26.66
78613;BME280;67933;51.060;3.638;2023-02-28T15:00:47;103034.00;;;9.29;26.60
78613;BME280;67933;51.060;3.638;2023-02-28T15:03:33;103046.47;;;7.97;28.92
78613;BME280;67933;51.060;3.638;2023-02-28T15:06:05;103040.22;;;7.14;31.56
78613;BME280;67933;51.060;3.638;2023-02-28T15:08:32;103035.28;;;6.70;31.39
78613;BME280;67933;51.060;3.638;2023-02-28T15:11:04;103045.16;;;6.34;33.39
78613;BME280;67933;51.060;3.638;2023-02-28T15:13:40;103036.44;;;6.15;33.59
78613;BME280;67933;51.060;3.638;2023-02-28T15:16:30;103040.81;;;6.19;33.14
78613;BME280;67933;51.060;3.638;2023-02-28T15:19:01;103039.03;;;6.20;34.06
78613;BME280;67933;51.060;3.638;2023-02-28T15:21:33;103048.78;;;6.10;34.18
78613;BME280;67933;51.060;3.638;2023-02-28T15:24:04;103061.97;;;6.03;34.58
78613;BME280;67933;51.060;3.638;2023-02-28T15:26:33;103049.69;;;5.93;33.68
78613;BME280;67933;51.060;3.638;2023-02-28T15:29:03;103048.81;;;5.74;35.14
78613;BME280;67933;51.060;3.638;2023-02-28T15:31:35;103050.59;;;5.66;36.21